Time;durP1;ratioP1;P1;durP2;ratioP2;P2;SDS_P1;SDS_P2;PMS_P1;PMS_P2;Temp;Humidity;BMP_temperature;BMP_pressure;BME280_temperature;BME280_humidity;BME280_pressure;Samples;Min_cycle;Max_cycle;Signal;HPM_P1;HPM_P2
2022/10/05 00:01:28;;;;;;;3.05;1.35;;;;;;;16.17;41.90;99621.34;5072513;28;20033;-68
2022/10/05 00:03:57;;;;;;;2.58;1.40;;;;;;;16.21;41.31;99622.75;5039441;28;20033;-69
2022/10/05 00:06:26;;;;;;;2.80;1.42;;;;;;;16.16;41.88;99616.22;5038988;28;20118;-69
2022/10/05 00:08:51;;;;;;;5.30;1.80;;;;;;;16.11;41.98;99616.59;5039050;28;20099;-69
2022/10/05 00:11:17;;;;;;;2.97;1.63;;;;;;;16.09;42.14;99618.53;5038592;28;20037;-70
2022/10/05 00:13:43;;;;;;;2.20;1.40;;;;;;;16.04;42.15;99626.84;5055359;28;20055;-70
2022/10/05 00:16:16;;;;;;;3.38;1.25;;;;;;;16.03;41.98;99616.44;5038425;28;20135;-69
2022/10/05 00:18:49;;;;;;;2.95;1.10;;;;;;;16.00;42.05;99621.94;5038662;28;20074;-68
2022/10/05 00:21:24;;;;;;;3.15;1.42;;;;;;;16.00;42.05;99621.94;5055823;28;20040;-70
2022/10/05 00:23:50;;;;;;;2.40;1.30;;;;;;;16.03;41.95;99627.78;5055439;28;20476;-67
2022/10/05 00:26:24;;;;;;;3.47;1.10;;;;;;;16.05;41.70;99628.50;5071662;28;20086;-68
2022/10/05 00:28:49;;;;;;;1.55;1.10;;;;;;;16.04;41.49;99631.28;5055588;28;20047;-68
2022/10/05 00:31:25;;;;;;;2.03;1.20;;;;;;;16.09;41.40;99634.34;5054868;28;20060;-70
2022/10/05 00:33:51;;;;;;;2.80;1.20;;;;;;;16.09;41.33;99634.34;5039221;28;20036;-68
2022/10/05 00:36:16;;;;;;;2.03;1.00;;;;;;;16.14;41.35;99641.84;5054685;28;20051;-69
2022/10/05 00:38:42;;;;;;;2.10;1.13;;;;;;;16.10;41.38;99644.75;5054865;28;20471;-68
2022/10/05 00:41:10;;;;;;;3.92;1.30;;;;;;;16.09;41.47;99642.25;5054540;28;20472;-69
2022/10/05 00:43:54;;;;;;;2.58;1.30;;;;;;;16.04;41.58;99632.09;5050832;28;20479;-69
2022/10/05 00:46:49;;;;;;;2.55;1.10;;;;;;;16.07;41.62;99638.91;5019538;28;20033;-68
2022/10/05 00:49:26;;;;;;;1.83;1.20;;;;;;;16.01;41.97;99644.69;5037132;28;20115;-68
2022/10/05 00:52:12;;;;;;;2.35;1.20;;;;;;;15.97;42.68;99643.28;5051250;28;20116;-67
2022/10/05 00:54:42;;;;;;;1.63;1.10;;;;;;;15.94;42.39;99648.78;5020170;28;20189;-67
2022/10/05 00:57:12;;;;;;;2.30;1.40;;;;;;;15.92;42.37;99648.94;5051443;28;20039;-68
2022/10/05 00:59:46;;;;;;;2.75;1.20;;;;;;;15.92;42.42;99651.56;5034487;28;20029;-68
2022/10/05 01:02:18;;;;;;;1.70;1.10;;;;;;;15.89;42.37;99655.31;5035296;28;20104;-67
2022/10/05 01:04:55;;;;;;;1.65;1.17;;;;;;;15.85;42.44;99651.25;5018918;28;20566;-68
2022/10/05 01:07:30;;;;;;;2.92;1.33;;;;;;;15.82;42.58;99662.03;5051030;28;20032;-68
2022/10/05 01:10:08;;;;;;;2.67;1.15;;;;;;;15.78;42.57;99663.28;5051084;28;20037;-67
2022/10/05 01:12:59;;;;;;;1.90;1.23;;;;;;;15.76;42.69;99675.66;5050892;28;20037;-67
2022/10/05 01:15:33;;;;;;;1.80;1.10;;;;;;;15.72;42.62;99661.13;5051052;28;20551;-68
2022/10/05 01:18:07;;;;;;;3.10;1.08;;;;;;;15.66;42.76;99651.91;5050868;28;20029;-68
2022/10/05 01:20:39;;;;;;;6.30;0.98;;;;;;;15.66;42.82;99651.09;5051424;28;20549;-67
2022/10/05 01:23:14;;;;;;;1.75;1.05;;;;;;;15.66;42.85;99659.81;5034008;28;20025;-67
2022/10/05 01:25:49;;;;;;;1.77;1.00;;;;;;;15.66;42.82;99658.97;5051016;28;20025;-67
2022/10/05 01:28:23;;;;;;;2.40;1.27;;;;;;;15.67;42.68;99656.22;5050372;28;20021;-67
2022/10/05 01:31:04;;;;;;;2.40;1.10;;;;;;;15.63;42.49;99646.91;5018819;28;20043;-67
2022/10/05 01:33:36;;;;;;;4.55;1.10;;;;;;;15.66;42.63;99664.25;5051313;28;20111;-67
2022/10/05 01:36:17;;;;;;;2.83;1.20;;;;;;;15.68;42.64;99657.88;5034111;28;20035;-68
2022/10/05 01:38:54;;;;;;;1.50;0.93;;;;;;;15.62;42.21;99655.75;5050847;28;20057;-68
2022/10/05 01:41:51;;;;;;;1.67;1.08;;;;;;;15.61;42.60;99666.41;5018251;28;20511;-68
2022/10/05 01:44:23;;;;;;;2.05;1.20;;;;;;;15.55;42.82;99667.75;5051252;28;20074;-69
2022/10/05 01:46:51;;;;;;;1.83;1.30;;;;;;;15.52;42.93;99671.47;5034197;28;20032;-68
2022/10/05 01:49:24;;;;;;;3.30;1.20;;;;;;;15.49;43.12;99668.25;5033812;28;20074;-68
2022/10/05 01:51:55;;;;;;;2.88;1.20;;;;;;;15.45;43.35;99667.69;5034502;28;20064;-69
2022/10/05 01:54:56;;;;;;;1.52;1.02;;;;;;;15.45;43.38;99677.34;5050405;28;20099;-68
2022/10/05 01:58:06;;;;;;;2.10;1.17;;;;;;;15.43;43.79;99684.53;5053271;28;20198;-68
2022/10/05 02:00:33;;;;;;;4.22;1.10;;;;;;;15.39;43.64;99683.97;5033183;28;20143;-68
2022/10/05 02:03:03;;;;;;;3.83;1.17;;;;;;;15.35;43.85;99678.13;5004080;28;20044;-69
2022/10/05 02:05:54;;;;;;;1.58;1.10;;;;;;;15.24;43.82;99669.41;5003933;28;20037;-69
2022/10/05 02:08:35;;;;;;;2.40;1.10;;;;;;;15.27;43.65;99677.88;5022936;28;20043;-68
2022/10/05 02:11:06;;;;;;;2.05;1.30;;;;;;;15.29;43.71;99689.16;5020044;28;20064;-68
2022/10/05 02:13:47;;;;;;;2.42;1.05;;;;;;;15.22;44.04;99681.88;5004261;28;20045;-68
2022/10/05 02:16:22;;;;;;;3.08;1.13;;;;;;;15.24;44.13;99690.47;5020044;28;20144;-68
2022/10/05 02:18:54;;;;;;;1.42;1.00;;;;;;;15.18;44.23;99686.53;5020891;28;20504;-68
2022/10/05 02:21:20;;;;;;;2.65;1.20;;;;;;;15.20;44.16;99700.41;5020784;28;20512;-69
2022/10/05 02:23:45;;;;;;;3.88;1.23;;;;;;;15.08;44.22;99686.44;5019887;28;20033;-68
2022/10/05 02:26:11;;;;;;;3.13;1.15;;;;;;;15.12;44.38;99698.38;5003521;28;20040;-68
2022/10/05 02:28:48;;;;;;;2.42;1.27;;;;;;;15.10;44.38;99696.81;5019856;28;20064;-67
2022/10/05 02:31:18;;;;;;;2.15;1.13;;;;;;;15.09;44.23;99698.63;5004060;28;20099;-68
2022/10/05 02:33:44;;;;;;;1.55;1.00;;;;;;;15.15;44.26;99703.41;5020688;28;20144;-69
2022/10/05 02:36:10;;;;;;;2.72;1.30;;;;;;;15.13;44.32;99722.88;5070452;28;20067;-68
2022/10/05 02:39:04;;;;;;;3.30;1.17;;;;;;;15.10;44.35;99715.22;5053326;28;20036;-68
2022/10/05 02:41:36;;;;;;;1.38;1.00;;;;;;;15.06;44.47;99724.34;5042585;28;20032;-69
2022/10/05 02:44:17;;;;;;;1.30;0.90;;;;;;;15.01;44.60;99714.19;5073769;28;20028;-69
2022/10/05 02:46:59;;;;;;;1.25;1.00;;;;;;;15.00;44.52;99718.59;5074418;28;20474;-70
2022/10/05 02:49:36;;;;;;;1.75;1.13;;;;;;;15.00;44.32;99728.28;5073861;28;20586;-70
2022/10/05 02:52:10;;;;;;;2.13;1.13;;;;;;;14.97;44.70;99737.22;5073747;28;20028;-69
2022/10/05 02:54:54;;;;;;;2.00;1.25;;;;;;;14.92;44.84;99736.75;5073503;28;20459;-69
2022/10/05 02:57:38;;;;;;;5.78;1.35;;;;;;;14.90;44.73;99736.06;5074883;28;20035;-68
2022/10/05 03:00:18;;;;;;;3.17;1.50;;;;;;;14.80;44.94;99733.31;5073582;28;20021;-68
2022/10/05 03:02:57;;;;;;;2.38;1.40;;;;;;;14.79;44.72;99723.75;5056856;28;20040;-70
2022/10/05 03:05:29;;;;;;;;;;;;;;;14.75;44.89;99743.34;5073676;28;20059;-67
2022/10/05 03:08:05;;;;;;;2.72;1.17;;;;;;;14.70;45.16;99745.50;5056225;28;19936;-70
2022/10/05 03:10:48;;;;;;;2.00;1.27;;;;;;;14.72;44.99;99742.75;5057306;28;20028;-68
2022/10/05 03:13:22;;;;;;;2.55;1.20;;;;;;;14.77;44.72;99743.22;5058088;28;20020;-67
2022/10/05 03:16:11;;;;;;;3.67;1.25;;;;;;;14.76;44.92;99749.44;5072842;28;20045;-70
2022/10/05 03:18:46;;;;;;;4.47;1.30;;;;;;;14.75;45.05;99747.75;5072188;28;20036;-70
2022/10/05 03:21:53;;;;;;;1.50;1.20;;;;;;;14.72;45.00;99748.00;5055560;28;20051;-67
2022/10/05 03:24:21;;;;;;;2.05;1.23;;;;;;;14.69;45.11;99749.09;4973561;28;20100;-68
2022/10/05 03:27:08;;;;;;;2.80;1.25;;;;;;;14.61;45.20;99741.78;4973655;28;20043;-70
2022/10/05 03:29:43;;;;;;;1.52;1.00;;;;;;;14.63;45.15;99758.28;4957123;28;20043;-68
2022/10/05 03:32:46;;;;;;;1.90;1.20;;;;;;;14.64;45.09;99752.06;4956783;28;20047;-69
2022/10/05 03:35:17;;;;;;;3.78;1.58;;;;;;;14.57;45.05;99760.50;4915616;29;20043;-69
2022/10/05 03:38:03;;;;;;;1.88;1.05;;;;;;;14.56;45.07;99764.06;4915879;29;20036;-68
2022/10/05 03:40:35;;;;;;;2.40;1.20;;;;;;;14.47;45.15;99752.50;4915693;29;20071;-67
2022/10/05 03:43:19;;;;;;;2.63;1.00;;;;;;;14.50;45.33;99759.28;4884010;29;20139;-69
2022/10/05 03:45:51;;;;;;;1.50;0.90;;;;;;;14.45;45.16;99755.25;4915766;29;20088;-69
2022/10/05 03:48:32;;;;;;;2.33;1.10;;;;;;;14.44;45.21;99753.56;4915332;29;20578;-68
2022/10/05 03:50:58;;;;;;;4.28;1.20;;;;;;;14.42;45.26;99760.72;4883958;29;20031;-67
2022/10/05 03:53:26;;;;;;;1.90;1.30;;;;;;;14.38;45.35;99755.81;4899547;29;20033;-68
2022/10/05 03:56:10;;;;;;;4.88;1.40;;;;;;;14.38;45.41;99763.69;4883797;29;20126;-68
2022/10/05 03:59:00;;;;;;;2.85;1.40;;;;;;;14.50;47.51;99768.03;4897116;29;20044;-69
2022/10/05 04:01:35;;;;;;;3.40;1.60;;;;;;;14.55;46.92;99770.28;4952174;28;20061;-68
2022/10/05 04:04:02;;;;;;;2.60;1.45;;;;;;;14.61;54.87;99773.31;4980342;28;20050;-74
2022/10/05 04:06:36;;;;;;;6.00;2.17;;;;;;;14.96;50.65;99776.78;4981278;28;20029;-69
2022/10/05 04:09:03;;;;;;;3.03;1.90;;;;;;;14.93;48.04;99769.16;4994955;28;20045;-68
2022/10/05 04:11:33;;;;;;;4.68;2.00;;;;;;;14.90;47.01;99777.28;5042924;28;20036;-70
2022/10/05 04:14:03;;;;;;;2.78;1.80;;;;;;;14.89;46.75;99784.31;5039391;28;20036;-72
2022/10/05 04:16:59;;;;;;;6.63;1.80;;;;;;;14.86;46.30;99787.19;5071750;28;20052;-73
2022/10/05 04:19:35;;;;;;;3.00;1.77;;;;;;;15.04;54.24;99791.97;5069377;28;20036;-73
2022/10/05 04:22:49;;;;;;;11.10;1.90;;;;;;;15.50;49.70;99802.34;5053953;28;20479;-71
2022/10/05 04:25:24;;;;;;;2.05;1.40;;;;;;;15.60;46.33;99798.97;5039167;28;20037;-70
2022/10/05 04:27:53;;;;;;;2.10;1.40;;;;;;;15.95;44.56;99797.94;5038020;28;20040;-69
2022/10/05 04:30:21;;;;;;;3.17;1.40;;;;;;;16.31;43.17;99798.50;5037732;28;20076;-72
2022/10/05 04:32:56;;;;;;;2.30;1.45;;;;;;;16.83;41.79;99808.09;5037940;28;20127;-74
2022/10/05 04:35:52;;;;;;;5.25;1.20;;;;;;;17.26;40.38;99811.50;5038466;28;20029;-68
2022/10/05 04:38:32;;;;;;;3.88;1.15;;;;;;;17.84;38.87;99812.63;5059125;28;20052;-70
2022/10/05 04:41:36;;;;;;;2.10;1.33;;;;;;;18.50;37.32;99819.88;5050428;28;20029;-71
2022/10/05 04:44:20;;;;;;;4.93;1.90;;;;;;;19.10;36.08;99811.66;5017206;28;20040;-71
2022/10/05 04:46:51;;;;;;;2.20;1.33;;;;;;;19.66;34.97;99822.22;5050593;28;20060;-72
2022/10/05 04:49:23;;;;;;;2.97;1.20;;;;;;;20.18;33.57;99817.13;5017193;28;20037;-71
2022/10/05 04:51:57;;;;;;;2.80;1.27;;;;;;;20.76;32.65;99809.59;5033416;28;20021;-71
2022/10/05 04:54:33;;;;;;;5.07;1.27;;;;;;;20.96;32.26;99810.22;5033545;28;20094;-72
2022/10/05 04:57:02;;;;;;;2.47;1.40;;;;;;;20.01;33.83;99816.13;5044969;28;20044;-72
2022/10/05 04:59:36;;;;;;;1.55;1.02;;;;;;;19.55;34.48;99825.09;5018060;28;20025;-69
2022/10/05 05:02:36;;;;;;;2.47;1.05;;;;;;;19.07;35.00;99819.03;5051505;28;20474;-69
2022/10/05 05:05:20;;;;;;;4.28;1.20;;;;;;;18.73;35.73;99825.66;5052649;28;20123;-71
2022/10/05 05:08:00;;;;;;;3.03;1.30;;;;;;;18.40;36.23;99832.25;5052582;28;20032;-69
2022/10/05 05:10:47;;;;;;;2.80;1.45;;;;;;;18.10;36.64;99820.84;5051128;28;20021;-70
2022/10/05 05:13:12;;;;;;;3.67;1.70;;;;;;;18.02;36.85;99829.47;5052456;28;20025;-69
2022/10/05 05:16:09;;;;;;;3.05;1.60;;;;;;;18.21;36.87;99836.56;5050277;28;20112;-69
2022/10/05 05:18:34;;;;;;;8.43;1.58;;;;;;;18.77;36.27;99842.91;5018081;28;20045;-69
2022/10/05 05:21:36;;;;;;;5.53;1.40;;;;;;;19.43;35.56;99848.25;5048985;28;20621;-70
2022/10/05 05:24:20;;;;;;;5.75;1.58;;;;;;;20.35;34.23;99849.91;5018695;28;20091;-70
2022/10/05 05:26:49;;;;;;;6.35;1.50;;;;;;;21.25;32.72;99854.16;5032811;28;20024;-69
2022/10/05 05:29:53;;;;;;;4.57;1.85;;;;;;;21.88;31.48;99850.25;5050770;28;20029;-70
2022/10/05 05:32:55;;;;;;;4.68;1.50;;;;;;;22.90;30.21;99848.09;5076304;28;20606;-69
2022/10/05 05:35:26;;;;;;;6.15;1.92;;;;;;;23.79;28.50;99863.09;5016782;28;20516;-68
2022/10/05 05:38:19;;;;;;;4.75;1.90;;;;;;;24.45;27.48;99868.84;5000300;28;20041;-68
2022/10/05 05:41:05;;;;;;;2.78;2.20;;;;;;;25.15;26.29;99860.69;5000567;28;20038;-69
2022/10/05 05:43:37;;;;;;;3.35;1.95;;;;;;;25.80;25.30;99873.22;4986508;28;20049;-69
2022/10/05 05:46:06;;;;;;;4.80;2.10;;;;;;;26.35;24.85;99875.47;5016535;28;20046;-68
2022/10/05 05:48:41;;;;;;;9.75;2.08;;;;;;;26.89;24.00;99874.06;4968164;28;20437;-68
2022/10/05 05:51:19;;;;;;;9.65;2.10;;;;;;;27.37;23.32;99874.16;4968319;28;20041;-69
2022/10/05 05:53:47;;;;;;;4.15;1.80;;;;;;;27.79;22.97;99871.44;4985004;28;20045;-70
2022/10/05 05:56:16;;;;;;;5.43;1.50;;;;;;;28.21;22.48;99874.00;4968342;28;20045;-68
2022/10/05 05:58:50;;;;;;;3.10;1.45;;;;;;;28.64;21.44;99879.03;4984350;28;20281;-68
2022/10/05 06:02:00;;;;;;;1.88;1.00;;;;;;;29.02;21.03;99876.50;5000545;28;20027;-69
2022/10/05 06:04:40;;;;;;;3.78;1.30;;;;;;;29.50;20.70;99877.19;4996639;28;20046;-72
2022/10/05 06:07:06;;;;;;;3.70;1.10;;;;;;;29.85;19.88;99883.03;4980916;28;20045;-68
2022/10/05 06:09:39;;;;;;;4.68;1.40;;;;;;;30.10;19.99;99877.72;4951668;28;20044;-69
2022/10/05 06:12:14;;;;;;;2.65;1.10;;;;;;;30.42;19.27;99888.50;4942081;28;20042;-69
2022/10/05 06:14:50;;;;;;;3.80;1.20;;;;;;;30.73;18.90;99881.41;4993494;28;20046;-68
2022/10/05 06:17:20;;;;;;;4.32;1.10;;;;;;;31.13;18.34;99875.63;4975844;28;20202;-68
2022/10/05 06:19:45;;;;;;;5.85;1.00;;;;;;;31.54;17.93;99887.63;4976899;28;20505;-68
2022/10/05 06:22:18;;;;;;;3.78;1.00;;;;;;;31.84;17.46;99891.41;4993462;28;20046;-67
2022/10/05 06:25:11;;;;;;;4.68;0.90;;;;;;;32.11;17.07;99897.28;4977290;28;20498;-68
2022/10/05 06:28:15;;;;;;;6.15;1.00;;;;;;;32.38;16.76;99904.97;4977950;28;20194;-69
2022/10/05 06:30:59;;;;;;;2.25;0.77;;;;;;;32.66;16.28;99906.19;4977385;28;20039;-68
2022/10/05 06:33:50;;;;;;;2.10;0.82;;;;;;;32.98;16.03;99907.50;4977155;28;20399;-68
2022/10/05 06:36:39;;;;;;;4.47;1.00;;;;;;;33.24;15.63;99916.22;4961346;28;20018;-67
2022/10/05 06:39:26;;;;;;;3.53;0.98;;;;;;;33.50;15.29;99920.25;4961186;28;20039;-67
2022/10/05 06:42:03;;;;;;;4.23;0.97;;;;;;;33.76;14.75;99914.56;5018945;28;20068;-66
2022/10/05 06:44:42;;;;;;;5.80;1.55;;;;;;;33.98;14.61;99906.56;5052820;28;20165;-67
2022/10/05 06:47:33;;;;;;;4.47;1.45;;;;;;;34.33;14.59;99919.13;5020104;28;20048;-67
2022/10/05 06:50:29;;;;;;;6.57;1.70;;;;;;;34.61;14.50;99918.22;5035989;28;20032;-69
2022/10/05 06:53:06;;;;;;;4.95;1.58;;;;;;;34.98;13.88;99912.28;5036025;28;20075;-68
2022/10/05 06:55:31;;;;;;;;;;;;;;;35.20;13.85;99915.03;5020780;28;20029;-69
2022/10/05 06:58:09;;;;;;;7.65;2.25;;;;;;;35.48;13.51;99911.34;5052407;28;19921;-69
2022/10/05 07:00:51;;;;;;;6.65;2.10;;;;;;;35.87;13.42;99921.31;5053483;28;20083;-70
2022/10/05 07:03:27;;;;;;;8.90;1.90;;;;;;;36.12;13.09;99918.03;5040896;28;20454;-67
2022/10/05 07:05:57;;;;;;;3.05;1.33;;;;;;;36.36;12.82;99929.41;5053349;28;20029;-67
2022/10/05 07:08:51;;;;;;;8.20;1.13;;;;;;;36.38;12.76;99926.44;5036348;28;20025;-68
2022/10/05 07:11:41;;;;;;;4.50;1.30;;;;;;;36.39;12.88;99926.19;5053343;28;20392;-67
2022/10/05 07:14:19;;;;;;;7.25;1.30;;;;;;;36.36;12.84;99920.44;5054589;28;20025;-67
2022/10/05 07:17:15;;;;;;;4.63;1.15;;;;;;;36.31;12.73;99918.50;5060182;28;20052;-68
2022/10/05 07:19:54;;;;;;;3.83;1.38;;;;;;;36.39;13.01;99914.50;5072621;28;20037;-67
2022/10/05 07:22:37;;;;;;;8.40;2.10;;;;;;;36.44;13.18;99919.97;5073404;28;20040;-67
2022/10/05 07:25:15;;;;;;;6.15;1.92;;;;;;;36.53;13.22;99923.00;5057609;28;20431;-67
2022/10/05 07:28:07;;;;;;;8.80;2.17;;;;;;;36.54;12.98;99922.75;5072955;28;20032;-67
2022/10/05 07:31:04;;;;;;;11.68;2.47;;;;;;;36.63;12.74;99930.44;5042372;28;20023;-68
2022/10/05 07:33:39;;;;;;;7.05;2.53;;;;;;;36.73;12.78;99925.91;5072376;28;20074;-67
2022/10/05 07:39:14;;;;;;;7.28;2.58;;;;;;;36.62;12.57;99926.88;5060494;28;20040;-68
2022/10/05 07:41:46;;;;;;;5.05;2.40;;;;;;;36.63;12.61;99930.44;5072788;28;20033;-68
2022/10/05 07:44:32;;;;;;;10.98;2.45;;;;;;;36.60;12.63;99930.97;5039976;28;20507;-69
2022/10/05 07:47:06;;;;;;;14.65;3.10;;;;;;;36.63;12.44;99936.69;5057626;28;20082;-67
2022/10/05 07:49:43;;;;;;;14.73;3.05;;;;;;;36.75;12.73;99926.47;5055734;28;20123;-68
2022/10/05 07:52:22;;;;;;;16.17;2.95;;;;;;;36.99;12.47;99930.69;5073632;28;20031;-68
2022/10/05 07:55:06;;;;;;;12.38;2.63;;;;;;;37.16;12.60;99935.97;5072599;28;20039;-68
2022/10/05 07:58:12;;;;;;;11.50;2.70;;;;;;;37.27;12.36;99937.69;5072258;28;20492;-68
2022/10/05 08:00:46;;;;;;;12.70;2.38;;;;;;;37.38;11.95;99936.63;5037649;28;20036;-68
2022/10/05 08:03:42;;;;;;;10.00;2.58;;;;;;;37.36;12.09;99936.09;5071329;28;20039;-68
2022/10/05 08:06:10;;;;;;;10.18;2.25;;;;;;;37.32;12.22;99936.88;5054302;28;20072;-68
2022/10/05 08:08:59;;;;;;;10.00;2.50;;;;;;;37.29;12.14;99924.59;5054561;28;20032;-69
2022/10/05 08:11:38;;;;;;;13.95;1.90;;;;;;;37.40;11.90;99934.50;5057182;28;20527;-68
2022/10/05 08:14:15;;;;;;;9.38;1.83;;;;;;;37.44;12.19;99927.41;5054729;28;20127;-70
2022/10/05 08:16:41;;;;;;;5.25;1.40;;;;;;;37.42;12.02;99942.38;5053739;28;20053;-67
2022/10/05 08:19:27;;;;;;;7.60;1.60;;;;;;;37.32;11.76;99932.25;5054414;28;20044;-67
2022/10/05 08:22:07;;;;;;;5.10;1.00;;;;;;;37.22;12.00;99927.59;5053813;28;20124;-70
2022/10/05 08:24:37;;;;;;;2.40;0.82;;;;;;;37.14;12.17;99936.22;5053933;28;20121;-69
2022/10/05 08:27:34;;;;;;;2.20;0.68;;;;;;;37.03;12.19;99937.25;5037409;28;20067;-69
2022/10/05 08:30:05;;;;;;;3.38;0.60;;;;;;;36.93;12.08;99930.66;4979006;28;20112;-69
2022/10/05 08:32:35;;;;;;;3.00;0.73;;;;;;;36.99;12.29;99934.25;4975611;28;20415;-68
2022/10/05 08:35:24;;;;;;;2.58;0.60;;;;;;;36.54;12.54;99938.25;4991676;28;20042;-70
2022/10/05 08:37:49;;;;;;;2.55;0.50;;;;;;;36.74;12.44;99932.19;4991418;28;20107;-69
2022/10/05 08:40:17;;;;;;;1.60;0.57;;;;;;;36.87;12.75;99936.34;4958675;28;20066;-67
2022/10/05 08:43:19;;;;;;;2.75;0.68;;;;;;;36.96;12.66;99932.06;4991296;28;20037;-70
2022/10/05 08:45:51;;;;;;;2.40;0.52;;;;;;;37.07;12.61;99930.22;4991666;28;20034;-70
2022/10/05 08:48:43;;;;;;;0.45;0.30;;;;;;;37.16;12.46;99925.06;4991081;28;20045;-69
2022/10/05 08:51:21;;;;;;;11.63;1.63;;;;;;;37.33;12.44;99925.72;4991217;28;20496;-68
2022/10/05 08:54:02;;;;;;;16.23;1.60;;;;;;;37.47;12.79;99907.81;4991066;28;20538;-70
2022/10/05 08:56:52;;;;;;;7.13;1.02;;;;;;;37.41;12.73;99908.06;4991066;28;20030;-71
2022/10/05 08:59:35;;;;;;;6.60;0.77;;;;;;;37.24;12.76;99914.53;4990992;28;20045;-70
2022/10/05 09:02:23;;;;;;;2.78;0.63;;;;;;;37.41;12.48;99919.75;4974788;28;20038;-69
2022/10/05 09:05:07;;;;;;;3.45;0.77;;;;;;;37.50;12.35;99909.19;4990807;28;20041;-69
2022/10/05 09:07:42;;;;;;;2.70;0.60;;;;;;;37.54;12.07;99910.28;5070260;28;20032;-69
2022/10/05 09:10:16;;;;;;;2.30;0.70;;;;;;;37.56;11.80;99907.28;5054388;28;20476;-71
2022/10/05 09:12:45;;;;;;;1.42;0.65;;;;;;;37.62;11.73;99908.94;5071211;28;20077;-70
2022/10/05 09:15:13;;;;;;;8.90;0.50;;;;;;;37.62;11.80;99911.66;5072026;28;20541;-68
2022/10/05 09:18:06;;;;;;;4.20;0.77;;;;;;;37.57;12.22;99912.47;5072313;28;20186;-69
2022/10/05 09:20:51;;;;;;;6.38;0.60;;;;;;;37.58;11.84;99918.75;5072429;28;20031;-68
2022/10/05 09:23:56;;;;;;;1.13;0.52;;;;;;;37.60;11.94;99920.09;5071505;28;20032;-71
2022/10/05 09:26:55;;;;;;;2.20;0.40;;;;;;;37.61;11.80;99921.75;5052996;28;20045;-70
2022/10/05 09:29:46;;;;;;;1.40;0.40;;;;;;;37.63;11.88;99921.47;5070217;28;20080;-69
2022/10/05 09:32:30;;;;;;;1.45;0.30;;;;;;;37.61;11.95;99915.50;4971179;28;20051;-69
2022/10/05 09:35:12;;;;;;;1.30;0.47;;;;;;;37.63;11.77;99921.47;4971276;28;20505;-69
2022/10/05 09:37:56;;;;;;;0.82;0.32;;;;;;;37.58;11.51;99922.28;4955121;28;20510;-69
2022/10/05 09:40:58;;;;;;;2.10;0.50;;;;;;;37.56;11.12;99921.75;4971689;28;20034;-70
2022/10/05 09:43:42;;;;;;;1.95;0.40;;;;;;;37.52;11.66;99920.63;4954724;28;20223;-69
2022/10/05 09:46:34;;;;;;;3.28;0.70;;;;;;;37.43;11.26;99914.91;4954569;28;20054;-70
2022/10/05 09:49:13;;;;;;;4.18;0.73;;;;;;;37.30;11.24;99918.09;4957399;28;20076;-68
2022/10/05 09:51:59;;;;;;;1.17;0.40;;;;;;;37.07;11.17;99909.25;4954957;28;20081;-68
2022/10/05 09:54:40;;;;;;;1.88;0.50;;;;;;;36.88;11.57;99908.03;4971181;28;20086;-68
2022/10/05 09:57:23;;;;;;;1.17;0.40;;;;;;;36.80;11.31;99922.13;4970955;28;20047;-67
2022/10/05 10:00:13;;;;;;;1.35;0.47;;;;;;;36.53;11.44;99914.84;4954552;28;20035;-68
2022/10/05 10:02:57;;;;;;;2.95;0.22;;;;;;;36.28;11.92;99910.88;4958557;28;20042;-68
2022/10/05 10:05:41;;;;;;;1.10;0.45;;;;;;;36.22;11.96;99903.72;4973984;28;20049;-68
2022/10/05 10:08:09;;;;;;;1.48;0.40;;;;;;;36.03;12.09;99911.41;4962811;28;20045;-69
2022/10/05 10:10:51;;;;;;;1.92;0.90;;;;;;;35.19;13.04;99916.13;5069839;28;20127;-68
2022/10/05 10:13:56;;;;;;;2.97;0.60;;;;;;;34.54;13.52;99912.16;5070088;28;20036;-68
2022/10/05 10:16:58;;;;;;;4.75;0.73;;;;;;;33.89;14.13;99914.28;5069199;28;20125;-68
2022/10/05 10:19:48;;;;;;;4.38;0.60;;;;;;;33.48;14.86;99903.44;5055711;28;20033;-68
2022/10/05 10:22:32;;;;;;;2.03;0.55;;;;;;;32.78;15.04;99918.69;5042414;28;20047;-67
2022/10/05 10:25:33;;;;;;;2.03;0.55;;;;;;;32.05;15.80;99914.34;5056264;28;20087;-70
2022/10/05 10:28:32;;;;;;;2.15;0.60;;;;;;;31.39;16.37;99911.44;5073352;28;20428;-69
2022/10/05 10:31:16;;;;;;;0.52;0.32;;;;;;;30.89;16.85;99906.16;5073093;28;20036;-68
2022/10/05 10:33:54;;;;;;;1.45;0.57;;;;;;;30.49;16.89;99902.75;5073152;28;20071;-68
2022/10/05 10:36:20;;;;;;;1.10;0.30;;;;;;;30.64;16.78;99904.28;5072734;28;20029;-69
2022/10/05 10:39:03;;;;;;;1.20;0.50;;;;;;;30.71;16.85;99896.13;5056150;28;20492;-70
2022/10/05 10:41:40;;;;;;;2.55;0.60;;;;;;;30.80;17.00;99897.50;5039542;28;20131;-69
2022/10/05 10:44:24;;;;;;;3.70;0.43;;;;;;;30.90;16.40;99894.28;5073081;28;20028;-70
2022/10/05 10:47:05;;;;;;;3.75;0.50;;;;;;;30.77;16.39;99901.47;5072566;28;20112;-69
2022/10/05 10:49:42;;;;;;;2.17;0.40;;;;;;;30.74;16.08;99890.31;5056583;28;20025;-68
2022/10/05 10:52:52;;;;;;;1.70;0.50;;;;;;;30.83;16.77;99892.47;5073372;28;20040;-68
2022/10/05 10:55:42;;;;;;;1.40;0.40;;;;;;;30.85;16.18;99882.34;5074680;28;20028;-68
2022/10/05 10:58:38;;;;;;;2.05;0.65;;;;;;;30.92;17.00;99892.22;5073398;28;20033;-68
2022/10/05 11:01:33;;;;;;;1.87;0.60;;;;;;;30.84;16.66;99883.38;5073584;28;20442;-68
2022/10/05 11:04:07;;;;;;;1.38;0.40;;;;;;;30.81;16.38;99881.13;5059215;28;20025;-68
2022/10/05 11:06:45;;;;;;;0.95;0.40;;;;;;;30.75;16.30;99878.50;5073148;28;20047;-69
2022/10/05 11:09:23;;;;;;;1.85;0.60;;;;;;;30.76;16.85;99880.13;5058087;28;20028;-71
2022/10/05 11:12:16;;;;;;;3.70;1.40;;;;;;;30.69;16.99;99874.78;5073450;28;20526;-68
2022/10/05 11:15:20;;;;;;;2.15;0.90;;;;;;;30.64;16.44;99874.63;5074333;28;20081;-71
2022/10/05 11:18:05;;;;;;;1.75;0.68;;;;;;;30.58;16.47;99872.81;5071675;28;20047;-68
2022/10/05 11:20:57;;;;;;;1.73;0.80;;;;;;;30.47;16.74;99864.44;5056865;28;20431;-68
2022/10/05 11:23:41;;;;;;;1.77;0.77;;;;;;;30.36;16.82;99859.72;5071940;28;20041;-68
2022/10/05 11:26:36;;;;;;;2.15;0.82;;;;;;;30.19;16.86;99859.44;5071785;28;20036;-68
2022/10/05 11:29:16;;;;;;;2.88;0.73;;;;;;;30.02;16.84;99861.84;5053872;28;20040;-68
2022/10/05 11:32:05;;;;;;;2.38;0.77;;;;;;;29.76;16.46;99852.84;5055169;28;20123;-71
2022/10/05 11:34:50;;;;;;;1.70;0.60;;;;;;;29.55;16.98;99842.41;5055332;28;20029;-70
2022/10/05 11:37:37;;;;;;;1.70;0.60;;;;;;;29.38;16.55;99850.13;5057068;28;20404;-69
2022/10/05 11:40:11;;;;;;;;;;;;;;;29.31;16.55;99847.47;5055696;28;20028;-69
2022/10/05 11:42:52;;;;;;;1.13;0.50;;;;;;;29.12;16.60;99843.78;5071633;28;19909;-68
2022/10/05 11:45:21;;;;;;;1.20;0.45;;;;;;;28.97;17.12;99843.19;5071745;28;20037;-70
2022/10/05 11:48:06;;;;;;;2.28;0.40;;;;;;;28.85;16.99;99843.03;5038294;28;20094;-68
2022/10/05 11:50:46;;;;;;;1.33;0.47;;;;;;;28.69;17.02;99833.56;5055216;28;20128;-69
2022/10/05 11:53:28;;;;;;;1.20;0.30;;;;;;;28.55;17.14;99832.72;5071702;28;20024;-69
2022/10/05 11:56:12;;;;;;;1.35;0.32;;;;;;;28.38;17.30;99831.47;5053223;28;20068;-68
2022/10/05 11:58:46;;;;;;;1.30;0.28;;;;;;;28.19;17.12;99825.91;5053845;28;20021;-69
2022/10/05 12:01:17;;;;;;;0.50;0.30;;;;;;;28.18;17.31;99837.69;5052533;28;20488;-68
2022/10/05 12:04:04;;;;;;;1.05;0.30;;;;;;;28.11;17.60;99832.28;5035972;28;20087;-68
2022/10/05 12:06:48;;;;;;;0.80;0.40;;;;;;;28.11;17.83;99834.97;5052046;28;20029;-69
2022/10/05 12:09:29;;;;;;;2.40;0.40;;;;;;;28.06;17.95;99833.94;5053210;28;20549;-68
2022/10/05 12:11:57;;;;;;;1.20;0.52;;;;;;;27.98;17.75;99825.06;5053090;28;20396;-69
2022/10/05 12:14:23;;;;;;;1.30;0.40;;;;;;;27.88;17.72;99829.13;5051934;28;20025;-68
2022/10/05 12:17:10;;;;;;;0.98;0.55;;;;;;;27.76;17.51;99819.00;5064839;28;20049;-68
2022/10/05 12:19:48;;;;;;;1.08;0.55;;;;;;;27.63;17.48;99818.97;5071942;28;20048;-68
2022/10/05 12:22:39;;;;;;;2.03;0.40;;;;;;;27.51;17.45;99807.19;5072290;28;20039;-68
2022/10/05 12:25:20;;;;;;;1.67;0.30;;;;;;;27.53;17.43;99819.38;5057673;28;20029;-68
2022/10/05 12:27:47;;;;;;;1.05;0.30;;;;;;;27.34;17.24;99804.00;5073015;28;20020;-69
2022/10/05 12:30:12;;;;;;;1.85;0.30;;;;;;;27.29;17.41;99811.81;5071581;28;20060;-68
2022/10/05 12:33:03;;;;;;;0.68;0.30;;;;;;;27.14;17.34;99811.97;5072933;28;20053;-67
2022/10/05 12:35:29;;;;;;;0.40;0.25;;;;;;;26.98;18.18;99811.25;5072989;28;20040;-68
2022/10/05 12:38:01;;;;;;;1.35;0.40;;;;;;;26.79;18.61;99807.44;5072745;28;20089;-70